createdAt,value
2017-10-29T18:44:46.517Z,51.40
2017-10-29T18:47:14.963Z,52.40
2017-10-29T18:49:42.637Z,52.50
2017-10-29T18:52:10.216Z,52.40
2017-10-29T18:54:38.588Z,52.80
2017-10-29T18:57:07.056Z,53.10
2017-10-29T18:59:34.657Z,53.00
2017-10-29T19:02:02.245Z,53.10
2017-10-29T19:04:29.858Z,52.70
2017-10-29T19:06:58.205Z,53.50
2017-10-29T19:09:25.880Z,53.40
2017-10-29T19:11:53.536Z,53.30
2017-10-29T19:14:21.116Z,53.50
2017-10-29T19:16:49.584Z,53.30
2017-10-29T19:19:18.781Z,53.60
2017-10-29T19:21:46.388Z,53.50
2017-10-29T19:24:13.972Z,53.70
2017-10-29T19:26:41.576Z,53.90
2017-10-29T19:29:09.216Z,53.80
2017-10-29T19:31:36.825Z,54.50
2017-10-29T19:34:04.404Z,54.00
2017-10-29T19:36:32.116Z,54.30
2017-10-29T19:39:01.309Z,54.50
2017-10-29T19:41:29.680Z,55.40
2017-10-29T19:43:57.274Z,54.70
2017-10-29T19:46:25.741Z,55.10
2017-10-29T19:48:54.180Z,55.20
2017-10-29T19:51:22.696Z,55.40
2017-10-29T19:53:51.784Z,55.50
2017-10-29T19:56:19.404Z,55.50
2017-10-29T19:58:46.994Z,55.50
2017-10-29T20:01:14.572Z,55.40
2017-10-29T20:03:42.244Z,55.50
2017-10-29T20:06:11.330Z,55.20
2017-10-29T20:08:38.936Z,55.20
2017-10-29T20:11:06.569Z,55.20
2017-10-29T20:13:34.248Z,55.20
2017-10-29T20:16:02.604Z,55.20
2017-10-29T20:18:30.245Z,55.20
2017-10-29T20:20:57.932Z,55.30
2017-10-29T20:23:25.536Z,55.50
2017-10-29T20:25:53.114Z,55.50
2017-10-29T20:28:20.723Z,55.50
2017-10-29T20:30:49.068Z,56.20
2017-10-29T20:33:16.671Z,56.20
2017-10-29T20:35:45.033Z,56.80
2017-10-29T20:38:13.420Z,56.50
2017-10-29T20:40:42.618Z,56.80
2017-10-29T20:43:10.964Z,56.80
2017-10-29T20:45:38.656Z,56.80
2017-10-29T20:48:07.037Z,56.70
2017-10-29T20:50:34.688Z,57.00
2017-10-29T20:53:02.269Z,57.40
2017-10-29T20:55:30.741Z,57.30
2017-10-29T20:57:59.941Z,58.30
2017-10-29T21:00:27.569Z,58.90
2017-10-29T21:02:55.164Z,60.00
2017-10-29T21:05:23.644Z,63.00
2017-10-29T21:07:51.285Z,63.00
2017-10-29T21:10:18.896Z,63.80
2017-10-29T21:12:47.241Z,64.80
2017-10-29T21:15:14.865Z,64.80
2017-10-29T21:17:42.454Z,65.00
2017-10-29T21:20:10.044Z,65.90
2017-10-29T21:22:38.512Z,66.70
2017-10-29T21:25:06.865Z,66.00
2017-10-29T21:27:34.561Z,66.00
2017-10-29T21:30:02.220Z,65.90
2017-10-29T21:32:29.828Z,66.10
2017-10-29T21:34:57.453Z,66.70
2017-10-29T21:37:26.573Z,67.20
2017-10-29T21:39:54.920Z,67.40
2017-10-29T21:42:22.585Z,67.30
2017-10-29T21:44:51.668Z,67.70
2017-10-29T21:47:19.340Z,67.70
2017-10-29T21:49:48.536Z,68.10
2017-10-29T21:52:16.168Z,68.10
2017-10-29T21:54:43.765Z,68.00
2017-10-29T21:57:12.107Z,68.00
2017-10-29T21:59:39.808Z,68.10
2017-10-29T22:02:07.408Z,67.90
2017-10-29T22:04:35.009Z,68.10
2017-10-29T22:07:02.600Z,68.10
2017-10-29T22:09:30.253Z,68.40
2017-10-29T22:11:57.837Z,68.00
2017-10-29T22:14:26.204Z,69.00
2017-10-29T22:16:54.556Z,69.40
2017-10-29T22:19:22.165Z,69.30
2017-10-29T22:21:50.512Z,69.50
2017-10-29T22:24:18.173Z,69.50
2017-10-29T22:26:45.758Z,70.40
2017-10-29T22:29:14.224Z,67.80
2017-10-29T22:31:42.605Z,68.20
2017-10-29T22:34:11.000Z,68.60
2017-10-29T22:36:39.345Z,70.00
2017-10-29T22:39:07.016Z,69.90
2017-10-29T22:41:34.628Z,70.80
2017-10-29T22:44:02.279Z,71.20
2017-10-29T22:46:29.908Z,71.50
2017-10-29T22:48:57.573Z,71.40
2017-10-29T22:51:26.681Z,71.20
2017-10-29T22:53:55.048Z,71.10
2017-10-29T22:56:22.706Z,70.30
2017-10-29T22:58:50.380Z,69.70
2017-10-29T23:01:18.748Z,71.10
2017-10-29T23:03:46.333Z,70.30
2017-10-29T23:09:23.219Z,71.00
2017-10-29T23:11:51.593Z,71.40
2017-10-29T23:14:20.788Z,71.70
2017-10-29T23:16:48.452Z,71.60
2017-10-29T23:19:16.041Z,71.60
2017-10-29T23:21:44.429Z,71.50
2017-10-29T23:24:12.017Z,71.50
2017-10-29T23:26:39.627Z,71.30
2017-10-29T23:29:07.212Z,71.30
2017-10-29T23:31:34.845Z,71.50
2017-10-29T23:34:02.509Z,71.60
2017-10-29T23:36:30.116Z,71.90
2017-10-29T23:38:57.701Z,72.20
2017-10-29T23:41:25.298Z,72.30
2017-10-29T23:43:52.949Z,71.90
2017-10-29T23:46:20.589Z,72.20
2017-10-29T23:48:48.277Z,72.20
2017-10-29T23:51:15.921Z,72.00
2017-10-29T23:53:43.605Z,71.80
2017-10-29T23:56:11.189Z,71.30
2017-10-29T23:58:39.562Z,71.30
